sensor_id;sensor_type;location;lat;lon;timestamp;temperature;humidity
19947;DHT22;10135;50.702;7.276;2022-12-13T06:01:36;0.50;61.80
19947;DHT22;10135;50.702;7.276;2022-12-13T06:03:38;0.50;61.80
19947;DHT22;10135;50.702;7.276;2022-12-13T06:05:39;0.50;61.80
19947;DHT22;10135;50.702;7.276;2022-12-13T06:07:41;0.50;61.90
19947;DHT22;10135;50.702;7.276;2022-12-13T06:09:42;0.50;61.90
19947;DHT22;10135;50.702;7.276;2022-12-13T06:11:42;0.50;61.80
19947;DHT22;10135;50.702;7.276;2022-12-13T06:13:43;0.50;61.90
19947;DHT22;10135;50.702;7.276;2022-12-13T06:15:50;0.50;61.90
19947;DHT22;10135;50.702;7.276;2022-12-13T06:17:51;0.50;61.90
19947;DHT22;10135;50.702;7.276;2022-12-13T06:19:51;0.50;61.80
19947;DHT22;10135;50.702;7.276;2022-12-13T06:21:53;0.50;61.80
19947;DHT22;10135;50.702;7.276;2022-12-13T06:23:54;0.50;61.80
19947;DHT22;10135;50.702;7.276;2022-12-13T06:25:56;0.50;61.80
19947;DHT22;10135;50.702;7.276;2022-12-13T06:27:56;0.50;61.80
19947;DHT22;10135;50.702;7.276;2022-12-13T06:29:57;0.50;61.80
19947;DHT22;10135;50.702;7.276;2022-12-13T06:32:00;0.50;61.80
19947;DHT22;10135;50.702;7.276;2022-12-13T06:34:04;0.50;61.80
19947;DHT22;10135;50.702;7.276;2022-12-13T06:36:05;0.40;61.80
19947;DHT22;10135;50.702;7.276;2022-12-13T06:38:07;0.40;61.60
19947;DHT22;10135;50.702;7.276;2022-12-13T06:40:08;0.40;61.60
19947;DHT22;10135;50.702;7.276;2022-12-13T06:42:14;0.40;61.70
19947;DHT22;10135;50.702;7.276;2022-12-13T06:44:17;0.40;61.70
19947;DHT22;10135;50.702;7.276;2022-12-13T06:46:18;0.40;61.70
19947;DHT22;10135;50.702;7.276;2022-12-13T06:48:18;0.40;61.80
19947;DHT22;10135;50.702;7.276;2022-12-13T06:50:19;0.40;61.70
19947;DHT22;10135;50.702;7.276;2022-12-13T06:52:19;0.40;61.70
19947;DHT22;10135;50.702;7.276;2022-12-13T06:54:20;0.30;61.60
19947;DHT22;10135;50.702;7.276;2022-12-13T06:56:21;0.30;61.60
19947;DHT22;10135;50.702;7.276;2022-12-13T06:58:22;0.30;61.70
19947;DHT22;10135;50.702;7.276;2022-12-13T07:00:23;0.30;61.60
19947;DHT22;10135;50.702;7.276;2022-12-13T07:02:24;0.30;61.70
19947;DHT22;10135;50.702;7.276;2022-12-13T07:04:25;0.30;61.70
19947;DHT22;10135;50.702;7.276;2022-12-13T07:06:25;0.20;61.60
19947;DHT22;10135;50.702;7.276;2022-12-13T07:08:26;0.20;61.60
19947;DHT22;10135;50.702;7.276;2022-12-13T07:10:27;0.20;61.60
19947;DHT22;10135;50.702;7.276;2022-12-13T07:12:27;0.20;61.60
19947;DHT22;10135;50.702;7.276;2022-12-13T07:14:28;0.20;61.60
19947;DHT22;10135;50.702;7.276;2022-12-13T07:16:29;0.20;61.70
19947;DHT22;10135;50.702;7.276;2022-12-13T07:18:29;0.20;61.80
19947;DHT22;10135;50.702;7.276;2022-12-13T07:20:30;0.20;61.70
19947;DHT22;10135;50.702;7.276;2022-12-13T07:22:31;0.20;61.80
19947;DHT22;10135;50.702;7.276;2022-12-13T07:24:33;0.20;61.70
19947;DHT22;10135;50.702;7.276;2022-12-13T07:26:34;0.10;61.70
19947;DHT22;10135;50.702;7.276;2022-12-13T07:28:35;0.10;61.60
19947;DHT22;10135;50.702;7.276;2022-12-13T07:30:38;0.10;61.70
19947;DHT22;10135;50.702;7.276;2022-12-13T07:32:39;0.10;61.60
19947;DHT22;10135;50.702;7.276;2022-12-13T07:34:39;0.10;61.60
19947;DHT22;10135;50.702;7.276;2022-12-13T07:36:40;0.10;61.60
19947;DHT22;10135;50.702;7.276;2022-12-13T07:38:41;0.10;61.60
19947;DHT22;10135;50.702;7.276;2022-12-13T07:40:42;0.10;61.70
19947;DHT22;10135;50.702;7.276;2022-12-13T07:42:52;0.10;61.70
19947;DHT22;10135;50.702;7.276;2022-12-13T07:44:54;0.10;61.70
19947;DHT22;10135;50.702;7.276;2022-12-13T07:46:55;0.10;61.70
19947;DHT22;10135;50.702;7.276;2022-12-13T07:48:55;0.10;61.70
19947;DHT22;10135;50.702;7.276;2022-12-13T07:51:05;0.10;61.70
19947;DHT22;10135;50.702;7.276;2022-12-13T07:53:07;0.10;61.80
19947;DHT22;10135;50.702;7.276;2022-12-13T07:55:08;0.10;61.80
19947;DHT22;10135;50.702;7.276;2022-12-13T07:57:09;0.10;61.80
19947;DHT22;10135;50.702;7.276;2022-12-13T07:59:09;0.10;61.80
19947;DHT22;10135;50.702;7.276;2022-12-13T08:01:10;0.10;61.80
19947;DHT22;10135;50.702;7.276;2022-12-13T08:03:14;0.10;61.80
19947;DHT22;10135;50.702;7.276;2022-12-13T08:05:15;0.20;62.00
19947;DHT22;10135;50.702;7.276;2022-12-13T08:07:17;0.20;62.00
19947;DHT22;10135;50.702;7.276;2022-12-13T08:09:17;0.30;62.30
19947;DHT22;10135;50.702;7.276;2022-12-13T08:11:18;0.40;62.60
19947;DHT22;10135;50.702;7.276;2022-12-13T08:13:19;0.50;62.90
19947;DHT22;10135;50.702;7.276;2022-12-13T08:15:19;0.70;63.10
19947;DHT22;10135;50.702;7.276;2022-12-13T08:17:21;0.90;63.20
19947;DHT22;10135;50.702;7.276;2022-12-13T08:19:21;1.10;63.30
19947;DHT22;10135;50.702;7.276;2022-12-13T08:21:22;1.30;63.30
19947;DHT22;10135;50.702;7.276;2022-12-13T08:23:23;1.50;63.20
19947;DHT22;10135;50.702;7.276;2022-12-13T08:25:24;1.80;63.30
19947;DHT22;10135;50.702;7.276;2022-12-13T08:27:25;2.00;63.10
19947;DHT22;10135;50.702;7.276;2022-12-13T08:29:31;2.20;63.20
19947;DHT22;10135;50.702;7.276;2022-12-13T08:31:33;2.40;63.00
19947;DHT22;10135;50.702;7.276;2022-12-13T08:33:34;2.60;62.90
19947;DHT22;10135;50.702;7.276;2022-12-13T08:35:35;2.70;62.70
19947;DHT22;10135;50.702;7.276;2022-12-13T08:37:35;2.90;62.60
19947;DHT22;10135;50.702;7.276;2022-12-13T08:39:37;3.10;62.50
19947;DHT22;10135;50.702;7.276;2022-12-13T08:41:38;3.20;62.30
19947;DHT22;10135;50.702;7.276;2022-12-13T08:43:39;3.30;62.20
19947;DHT22;10135;50.702;7.276;2022-12-13T08:45:40;3.40;61.90
19947;DHT22;10135;50.702;7.276;2022-12-13T08:47:41;3.50;61.80
19947;DHT22;10135;50.702;7.276;2022-12-13T08:49:42;3.60;61.70
19947;DHT22;10135;50.702;7.276;2022-12-13T08:51:42;3.70;61.60
19947;DHT22;10135;50.702;7.276;2022-12-13T08:53:43;3.80;61.40
19947;DHT22;10135;50.702;7.276;2022-12-13T08:55:44;3.80;61.40
19947;DHT22;10135;50.702;7.276;2022-12-13T08:57:44;3.90;61.40
19947;DHT22;10135;50.702;7.276;2022-12-13T08:59:45;4.00;61.30
19947;DHT22;10135;50.702;7.276;2022-12-13T09:01:46;4.10;61.20
19947;DHT22;10135;50.702;7.276;2022-12-13T09:03:47;4.10;60.90
19947;DHT22;10135;50.702;7.276;2022-12-13T09:05:48;4.10;60.70
19947;DHT22;10135;50.702;7.276;2022-12-13T09:07:56;4.10;60.70
19947;DHT22;10135;50.702;7.276;2022-12-13T09:09:57;4.00;60.30
19947;DHT22;10135;50.702;7.276;2022-12-13T09:11:58;4.00;60.40
19947;DHT22;10135;50.702;7.276;2022-12-13T09:13:59;3.90;60.20
19947;DHT22;10135;50.702;7.276;2022-12-13T09:16:07;3.90;60.10
19947;DHT22;10135;50.702;7.276;2022-12-13T09:18:13;3.80;60.00
19947;DHT22;10135;50.702;7.276;2022-12-13T09:20:13;3.70;60.10
19947;DHT22;10135;50.702;7.276;2022-12-13T09:22:14;3.70;60.10
19947;DHT22;10135;50.702;7.276;2022-12-13T09:24:16;3.60;60.10
19947;DHT22;10135;50.702;7.276;2022-12-13T09:26:17;3.50;60.80
19947;DHT22;10135;50.702;7.276;2022-12-13T09:28:17;3.50;60.10
19947;DHT22;10135;50.702;7.276;2022-12-13T09:30:18;3.40;60.00
19947;DHT22;10135;50.702;7.276;2022-12-13T09:32:19;3.40;60.00
19947;DHT22;10135;50.702;7.276;2022-12-13T09:34:19;3.30;60.10
19947;DHT22;10135;50.702;7.276;2022-12-13T09:36:20;3.30;60.10
19947;DHT22;10135;50.702;7.276;2022-12-13T09:38:21;3.20;60.00
19947;DHT22;10135;50.702;7.276;2022-12-13T09:40:25;3.20;60.10
19947;DHT22;10135;50.702;7.276;2022-12-13T09:42:28;3.10;60.10
19947;DHT22;10135;50.702;7.276;2022-12-13T09:44:38;3.10;60.10
19947;DHT22;10135;50.702;7.276;2022-12-13T09:46:44;3.10;60.10
19947;DHT22;10135;50.702;7.276;2022-12-13T09:48:46;3.10;60.10
19947;DHT22;10135;50.702;7.276;2022-12-13T09:50:47;3.00;60.10
19947;DHT22;10135;50.702;7.276;2022-12-13T09:52:48;3.00;60.10
19947;DHT22;10135;50.702;7.276;2022-12-13T09:54:53;3.00;60.90
19947;DHT22;10135;50.702;7.276;2022-12-13T09:56:56;3.00;60.10
19947;DHT22;10135;50.702;7.276;2022-12-13T09:58:57;3.00;60.30
19947;DHT22;10135;50.702;7.276;2022-12-13T10:00:58;3.00;60.30
19947;DHT22;10135;50.702;7.276;2022-12-13T10:02:59;3.00;60.30
19947;DHT22;10135;50.702;7.276;2022-12-13T10:05:33;3.00;60.20
19947;DHT22;10135;50.702;7.276;2022-12-13T10:07:38;3.00;59.90
19947;DHT22;10135;50.702;7.276;2022-12-13T10:09:40;3.00;60.20
19947;DHT22;10135;50.702;7.276;2022-12-13T10:11:52;3.00;60.20
19947;DHT22;10135;50.702;7.276;2022-12-13T10:16:37;3.00;60.20
19947;DHT22;10135;50.702;7.276;2022-12-13T10:18:44;3.10;60.10
19947;DHT22;10135;50.702;7.276;2022-12-13T10:20:46;3.10;60.40
19947;DHT22;10135;50.702;7.276;2022-12-13T10:22:49;3.10;60.30
19947;DHT22;10135;50.702;7.276;2022-12-13T10:25:00;3.20;60.30
19947;DHT22;10135;50.702;7.276;2022-12-13T10:27:14;3.20;60.30
19947;DHT22;10135;50.702;7.276;2022-12-13T10:29:18;3.20;60.00
19947;DHT22;10135;50.702;7.276;2022-12-13T10:31:19;3.20;60.30
19947;DHT22;10135;50.702;7.276;2022-12-13T10:33:21;3.20;60.10
19947;DHT22;10135;50.702;7.276;2022-12-13T10:35:31;3.20;60.10
19947;DHT22;10135;50.702;7.276;2022-12-13T10:37:40;3.20;59.90
19947;DHT22;10135;50.702;7.276;2022-12-13T10:39:42;3.20;59.90
19947;DHT22;10135;50.702;7.276;2022-12-13T10:41:42;3.20;59.90
19947;DHT22;10135;50.702;7.276;2022-12-13T10:44:06;3.20;59.90
19947;DHT22;10135;50.702;7.276;2022-12-13T10:46:17;3.10;59.50
19947;DHT22;10135;50.702;7.276;2022-12-13T10:48:21;3.20;59.80
19947;DHT22;10135;50.702;7.276;2022-12-13T10:50:28;3.10;59.80
19947;DHT22;10135;50.702;7.276;2022-12-13T10:52:32;3.10;59.80
19947;DHT22;10135;50.702;7.276;2022-12-13T10:54:36;3.10;59.90
19947;DHT22;10135;50.702;7.276;2022-12-13T10:56:50;3.10;59.90
19947;DHT22;10135;50.702;7.276;2022-12-13T10:59:25;3.10;59.70
19947;DHT22;10135;50.702;7.276;2022-12-13T11:01:36;3.10;59.60
19947;DHT22;10135;50.702;7.276;2022-12-13T11:03:37;3.10;59.90
19947;DHT22;10135;50.702;7.276;2022-12-13T11:05:38;3.10;59.90
19947;DHT22;10135;50.702;7.276;2022-12-13T11:07:39;3.10;59.90
19947;DHT22;10135;50.702;7.276;2022-12-13T11:09:40;3.10;59.90
19947;DHT22;10135;50.702;7.276;2022-12-13T11:11:43;3.10;59.90
19947;DHT22;10135;50.702;7.276;2022-12-13T11:13:55;3.10;59.80
19947;DHT22;10135;50.702;7.276;2022-12-13T11:16:04;3.10;59.80
19947;DHT22;10135;50.702;7.276;2022-12-13T11:18:21;3.10;59.90
19947;DHT22;10135;50.702;7.276;2022-12-13T11:20:32;3.10;59.90
19947;DHT22;10135;50.702;7.276;2022-12-13T11:22:37;3.20;59.80
19947;DHT22;10135;50.702;7.276;2022-12-13T11:24:39;3.20;59.90
19947;DHT22;10135;50.702;7.276;2022-12-13T11:26:52;3.20;59.90
19947;DHT22;10135;50.702;7.276;2022-12-13T11:29:04;3.20;59.80
19947;DHT22;10135;50.702;7.276;2022-12-13T11:34:10;3.20;59.80
19947;DHT22;10135;50.702;7.276;2022-12-13T11:37:03;3.30;59.80
19947;DHT22;10135;50.702;7.276;2022-12-13T11:39:33;3.30;59.50
19947;DHT22;10135;50.702;7.276;2022-12-13T11:41:53;3.30;59.60
19947;DHT22;10135;50.702;7.276;2022-12-13T11:44:03;3.30;59.50
19947;DHT22;10135;50.702;7.276;2022-12-13T11:48:47;3.30;59.50
19947;DHT22;10135;50.702;7.276;2022-12-13T11:50:53;3.30;59.80
19947;DHT22;10135;50.702;7.276;2022-12-13T11:52:59;3.30;59.80
19947;DHT22;10135;50.702;7.276;2022-12-13T11:55:45;3.30;59.70
19947;DHT22;10135;50.702;7.276;2022-12-13T12:00:32;3.30;59.60
19947;DHT22;10135;50.702;7.276;2022-12-13T12:02:40;3.40;59.40
19947;DHT22;10135;50.702;7.276;2022-12-13T12:04:50;3.40;59.70
19947;DHT22;10135;50.702;7.276;2022-12-13T12:07:04;3.40;59.60
19947;DHT22;10135;50.702;7.276;2022-12-13T12:09:14;3.40;59.60
19947;DHT22;10135;50.702;7.276;2022-12-13T12:11:27;3.50;59.60
19947;DHT22;10135;50.702;7.276;2022-12-13T12:13:42;3.50;59.50
19947;DHT22;10135;50.702;7.276;2022-12-13T12:16:05;3.50;59.50
19947;DHT22;10135;50.702;7.276;2022-12-13T12:18:14;3.50;59.30
19947;DHT22;10135;50.702;7.276;2022-12-13T12:23:18;3.60;59.40
19947;DHT22;10135;50.702;7.276;2022-12-13T12:25:45;3.60;59.10
19947;DHT22;10135;50.702;7.276;2022-12-13T12:30:07;3.70;59.20
19947;DHT22;10135;50.702;7.276;2022-12-13T12:32:25;3.60;59.40
19947;DHT22;10135;50.702;7.276;2022-12-13T12:34:47;3.70;59.10
19947;DHT22;10135;50.702;7.276;2022-12-13T12:37:24;3.70;59.20
19947;DHT22;10135;50.702;7.276;2022-12-13T12:40:00;3.70;59.10
19947;DHT22;10135;50.702;7.276;2022-12-13T12:42:24;3.70;59.20
19947;DHT22;10135;50.702;7.276;2022-12-13T13:00:15;3.40;58.90
19947;DHT22;10135;50.702;7.276;2022-12-13T13:04:41;3.30;59.00
19947;DHT22;10135;50.702;7.276;2022-12-13T13:07:01;3.30;59.00
19947;DHT22;10135;50.702;7.276;2022-12-13T13:09:10;3.20;59.00
19947;DHT22;10135;50.702;7.276;2022-12-13T13:11:13;3.20;59.00
19947;DHT22;10135;50.702;7.276;2022-12-13T13:13:34;3.20;58.90
19947;DHT22;10135;50.702;7.276;2022-12-13T13:15:42;3.20;58.80
19947;DHT22;10135;50.702;7.276;2022-12-13T13:17:54;3.20;59.10
19947;DHT22;10135;50.702;7.276;2022-12-13T13:20:15;3.10;59.00
19947;DHT22;10135;50.702;7.276;2022-12-13T13:22:32;3.10;59.00
19947;DHT22;10135;50.702;7.276;2022-12-13T13:24:35;3.10;58.80
19947;DHT22;10135;50.702;7.276;2022-12-13T13:26:55;3.10;59.00
19947;DHT22;10135;50.702;7.276;2022-12-13T13:31:24;3.10;58.80
19947;DHT22;10135;50.702;7.276;2022-12-13T13:33:56;3.00;59.00
19947;DHT22;10135;50.702;7.276;2022-12-13T13:35:57;3.10;58.60
19947;DHT22;10135;50.702;7.276;2022-12-13T13:38:01;3.10;59.10
19947;DHT22;10135;50.702;7.276;2022-12-13T13:40:27;3.10;59.00
19947;DHT22;10135;50.702;7.276;2022-12-13T13:45:00;3.10;58.70
19947;DHT22;10135;50.702;7.276;2022-12-13T13:47:34;3.10;59.00
19947;DHT22;10135;50.702;7.276;2022-12-13T13:52:19;3.10;58.90
19947;DHT22;10135;50.702;7.276;2022-12-13T13:57:12;3.10;58.80
19947;DHT22;10135;50.702;7.276;2022-12-13T14:04:45;3.00;58.90
19947;DHT22;10135;50.702;7.276;2022-12-13T14:09:52;3.00;58.90
19947;DHT22;10135;50.702;7.276;2022-12-13T14:17:44;2.90;58.70
19947;DHT22;10135;50.702;7.276;2022-12-13T14:22:52;2.90;58.60
19947;DHT22;10135;50.702;7.276;2022-12-13T14:27:56;2.90;58.50
19947;DHT22;10135;50.702;7.276;2022-12-13T14:29:58;2.90;58.80
19947;DHT22;10135;50.702;7.276;2022-12-13T14:31:59;2.80;58.80
19947;DHT22;10135;50.702;7.276;2022-12-13T14:34:03;2.80;58.80
19947;DHT22;10135;50.702;7.276;2022-12-13T14:36:14;2.80;58.80
19947;DHT22;10135;50.702;7.276;2022-12-13T14:38:22;2.80;58.70
19947;DHT22;10135;50.702;7.276;2022-12-13T14:40:28;2.80;59.30
19947;DHT22;10135;50.702;7.276;2022-12-13T14:42:36;2.80;58.80
19947;DHT22;10135;50.702;7.276;2022-12-13T14:44:37;2.80;58.70
19947;DHT22;10135;50.702;7.276;2022-12-13T14:46:47;2.70;58.70
19947;DHT22;10135;50.702;7.276;2022-12-13T14:48:53;2.70;58.60
19947;DHT22;10135;50.702;7.276;2022-12-13T14:50:53;2.70;58.70
19947;DHT22;10135;50.702;7.276;2022-12-13T14:52:55;2.70;58.80
19947;DHT22;10135;50.702;7.276;2022-12-13T14:54:58;2.60;58.70
19947;DHT22;10135;50.702;7.276;2022-12-13T14:57:03;2.60;58.70
19947;DHT22;10135;50.702;7.276;2022-12-13T14:59:17;2.60;58.70
19947;DHT22;10135;50.702;7.276;2022-12-13T15:01:30;2.60;58.60
19947;DHT22;10135;50.702;7.276;2022-12-13T15:03:32;2.60;58.60
19947;DHT22;10135;50.702;7.276;2022-12-13T15:05:42;2.60;58.70
19947;DHT22;10135;50.702;7.276;2022-12-13T15:07:49;2.60;58.70
19947;DHT22;10135;50.702;7.276;2022-12-13T15:09:54;2.60;58.70
19947;DHT22;10135;50.702;7.276;2022-12-13T15:11:59;2.50;58.70
19947;DHT22;10135;50.702;7.276;2022-12-13T15:14:00;2.50;58.70
19947;DHT22;10135;50.702;7.276;2022-12-13T15:16:05;2.50;58.70
19947;DHT22;10135;50.702;7.276;2022-12-13T15:20:20;2.40;58.70
19947;DHT22;10135;50.702;7.276;2022-12-13T15:22:31;2.40;58.60
19947;DHT22;10135;50.702;7.276;2022-12-13T15:24:34;2.40;58.70
19947;DHT22;10135;50.702;7.276;2022-12-13T15:26:38;2.40;58.80
19947;DHT22;10135;50.702;7.276;2022-12-13T15:28:42;2.40;58.80
19947;DHT22;10135;50.702;7.276;2022-12-13T15:30:44;2.30;58.70
19947;DHT22;10135;50.702;7.276;2022-12-13T15:33:21;2.30;58.70
19947;DHT22;10135;50.702;7.276;2022-12-13T15:35:26;2.30;58.50
19947;DHT22;10135;50.702;7.276;2022-12-13T15:37:32;2.30;59.40
19947;DHT22;10135;50.702;7.276;2022-12-13T15:39:38;2.30;58.60
19947;DHT22;10135;50.702;7.276;2022-12-13T15:41:44;2.20;58.70
19947;DHT22;10135;50.702;7.276;2022-12-13T15:43:50;2.20;58.70
19947;DHT22;10135;50.702;7.276;2022-12-13T15:45:53;2.20;58.70
19947;DHT22;10135;50.702;7.276;2022-12-13T15:47:55;2.20;58.70
19947;DHT22;10135;50.702;7.276;2022-12-13T15:49:58;2.20;58.80
19947;DHT22;10135;50.702;7.276;2022-12-13T15:52:17;2.20;58.70
19947;DHT22;10135;50.702;7.276;2022-12-13T15:54:25;2.20;58.70
19947;DHT22;10135;50.702;7.276;2022-12-13T15:56:35;2.10;58.70
19947;DHT22;10135;50.702;7.276;2022-12-13T15:58:55;2.10;58.60
19947;DHT22;10135;50.702;7.276;2022-12-13T16:00:56;2.20;58.80
19947;DHT22;10135;50.702;7.276;2022-12-13T16:03:15;2.10;58.80
19947;DHT22;10135;50.702;7.276;2022-12-13T16:05:31;2.10;58.60
19947;DHT22;10135;50.702;7.276;2022-12-13T16:07:34;2.10;58.50
19947;DHT22;10135;50.702;7.276;2022-12-13T16:09:37;2.10;58.70
19947;DHT22;10135;50.702;7.276;2022-12-13T16:11:46;2.10;58.80
19947;DHT22;10135;50.702;7.276;2022-12-13T16:13:49;2.10;58.80
19947;DHT22;10135;50.702;7.276;2022-12-13T16:15:52;2.10;58.80
19947;DHT22;10135;50.702;7.276;2022-12-13T16:18:10;2.10;58.70
19947;DHT22;10135;50.702;7.276;2022-12-13T16:20:15;2.00;58.60
19947;DHT22;10135;50.702;7.276;2022-12-13T16:22:17;2.00;58.70
19947;DHT22;10135;50.702;7.276;2022-12-13T16:24:20;2.00;58.70
19947;DHT22;10135;50.702;7.276;2022-12-13T16:26:25;2.00;58.70
19947;DHT22;10135;50.702;7.276;2022-12-13T16:28:26;2.00;58.70
19947;DHT22;10135;50.702;7.276;2022-12-13T16:32:51;2.00;58.60
19947;DHT22;10135;50.702;7.276;2022-12-13T16:34:52;2.00;58.80
19947;DHT22;10135;50.702;7.276;2022-12-13T16:36:53;2.00;59.40
19947;DHT22;10135;50.702;7.276;2022-12-13T16:38:54;2.00;58.80
19947;DHT22;10135;50.702;7.276;2022-12-13T16:40:58;1.90;58.70
19947;DHT22;10135;50.702;7.276;2022-12-13T16:43:02;1.90;58.70
19947;DHT22;10135;50.702;7.276;2022-12-13T16:45:04;1.90;58.70
19947;DHT22;10135;50.702;7.276;2022-12-13T16:47:12;1.90;58.80
19947;DHT22;10135;50.702;7.276;2022-12-13T16:49:24;1.90;58.80
19947;DHT22;10135;50.702;7.276;2022-12-13T16:51:27;1.90;58.70
19947;DHT22;10135;50.702;7.276;2022-12-13T16:53:27;1.90;58.70
19947;DHT22;10135;50.702;7.276;2022-12-13T16:55:28;1.90;58.70
19947;DHT22;10135;50.702;7.276;2022-12-13T16:57:28;1.90;58.70
19947;DHT22;10135;50.702;7.276;2022-12-13T16:59:29;1.90;58.70
19947;DHT22;10135;50.702;7.276;2022-12-13T17:01:30;1.90;58.80
19947;DHT22;10135;50.702;7.276;2022-12-13T17:03:32;1.90;58.80
19947;DHT22;10135;50.702;7.276;2022-12-13T17:05:34;1.80;58.70
19947;DHT22;10135;50.702;7.276;2022-12-13T17:07:35;1.80;58.70
19947;DHT22;10135;50.702;7.276;2022-12-13T17:09:35;1.80;58.70
19947;DHT22;10135;50.702;7.276;2022-12-13T17:11:36;1.80;58.60
19947;DHT22;10135;50.702;7.276;2022-12-13T17:13:37;1.80;58.60
19947;DHT22;10135;50.702;7.276;2022-12-13T17:15:37;1.80;58.60
19947;DHT22;10135;50.702;7.276;2022-12-13T17:17:39;1.80;58.70
19947;DHT22;10135;50.702;7.276;2022-12-13T17:19:42;1.70;58.60
19947;DHT22;10135;50.702;7.276;2022-12-13T17:21:43;1.70;58.60
19947;DHT22;10135;50.702;7.276;2022-12-13T17:23:43;1.70;58.60
19947;DHT22;10135;50.702;7.276;2022-12-13T17:25:44;1.70;58.60
19947;DHT22;10135;50.702;7.276;2022-12-13T17:27:44;1.60;58.60
19947;DHT22;10135;50.702;7.276;2022-12-13T17:29:46;1.60;58.60
19947;DHT22;10135;50.702;7.276;2022-12-13T17:31:47;1.60;58.60
19947;DHT22;10135;50.702;7.276;2022-12-13T17:33:48;1.60;58.60
19947;DHT22;10135;50.702;7.276;2022-12-13T17:35:48;1.60;58.60
19947;DHT22;10135;50.702;7.276;2022-12-13T17:37:49;1.50;58.60
19947;DHT22;10135;50.702;7.276;2022-12-13T17:39:49;1.50;58.60
19947;DHT22;10135;50.702;7.276;2022-12-13T17:41:50;1.50;58.60
19947;DHT22;10135;50.702;7.276;2022-12-13T17:43:51;1.50;58.60
19947;DHT22;10135;50.702;7.276;2022-12-13T17:46:06;1.50;58.70
19947;DHT22;10135;50.702;7.276;2022-12-13T17:48:09;1.50;58.70
19947;DHT22;10135;50.702;7.276;2022-12-13T17:50:10;1.50;58.70
19947;DHT22;10135;50.702;7.276;2022-12-13T17:52:11;1.50;58.70
19947;DHT22;10135;50.702;7.276;2022-12-13T17:54:12;1.50;58.70
19947;DHT22;10135;50.702;7.276;2022-12-13T17:56:13;1.50;58.60
19947;DHT22;10135;50.702;7.276;2022-12-13T17:58:15;1.40;58.70
19947;DHT22;10135;50.702;7.276;2022-12-13T18:00:15;1.50;58.70
19947;DHT22;10135;50.702;7.276;2022-12-13T18:02:16;1.50;58.70
19947;DHT22;10135;50.702;7.276;2022-12-13T18:04:22;1.50;58.70
19947;DHT22;10135;50.702;7.276;2022-12-13T18:06:24;1.50;58.80
19947;DHT22;10135;50.702;7.276;2022-12-13T18:08:25;1.50;58.70
19947;DHT22;10135;50.702;7.276;2022-12-13T18:10:26;1.50;58.70
19947;DHT22;10135;50.702;7.276;2022-12-13T18:12:27;1.50;58.80
19947;DHT22;10135;50.702;7.276;2022-12-13T18:14:27;1.50;58.70
19947;DHT22;10135;50.702;7.276;2022-12-13T18:16:29;1.40;58.70
19947;DHT22;10135;50.702;7.276;2022-12-13T18:18:32;1.40;58.70
19947;DHT22;10135;50.702;7.276;2022-12-13T18:20:34;1.40;58.70
19947;DHT22;10135;50.702;7.276;2022-12-13T18:22:35;1.40;58.70
19947;DHT22;10135;50.702;7.276;2022-12-13T18:24:35;1.40;58.70
19947;DHT22;10135;50.702;7.276;2022-12-13T18:26:37;1.40;58.70
19947;DHT22;10135;50.702;7.276;2022-12-13T18:28:38;1.40;58.70
19947;DHT22;10135;50.702;7.276;2022-12-13T18:30:39;1.40;58.70
19947;DHT22;10135;50.702;7.276;2022-12-13T18:32:40;1.40;58.80
19947;DHT22;10135;50.702;7.276;2022-12-13T18:34:41;1.40;58.80
19947;DHT22;10135;50.702;7.276;2022-12-13T18:36:41;1.30;58.70
19947;DHT22;10135;50.702;7.276;2022-12-13T18:38:42;1.40;58.80
19947;DHT22;10135;50.702;7.276;2022-12-13T18:40:43;1.30;58.70
19947;DHT22;10135;50.702;7.276;2022-12-13T18:42:44;1.30;58.70
19947;DHT22;10135;50.702;7.276;2022-12-13T18:44:44;1.30;58.70
19947;DHT22;10135;50.702;7.276;2022-12-13T18:46:45;1.30;58.80
19947;DHT22;10135;50.702;7.276;2022-12-13T18:48:48;1.30;58.70
19947;DHT22;10135;50.702;7.276;2022-12-13T18:50:48;1.30;58.80
19947;DHT22;10135;50.702;7.276;2022-12-13T18:52:49;1.30;58.70
19947;DHT22;10135;50.702;7.276;2022-12-13T18:54:49;1.30;58.80
19947;DHT22;10135;50.702;7.276;2022-12-13T18:56:51;1.20;58.70
19947;DHT22;10135;50.702;7.276;2022-12-13T18:58:52;1.20;58.70
19947;DHT22;10135;50.702;7.276;2022-12-13T19:00:55;1.20;58.70
19947;DHT22;10135;50.702;7.276;2022-12-13T19:02:56;1.20;58.80
19947;DHT22;10135;50.702;7.276;2022-12-13T19:04:58;1.20;58.70
19947;DHT22;10135;50.702;7.276;2022-12-13T19:06:58;1.20;58.80
19947;DHT22;10135;50.702;7.276;2022-12-13T19:08:59;1.10;58.70
19947;DHT22;10135;50.702;7.276;2022-12-13T19:11:01;1.10;58.70
19947;DHT22;10135;50.702;7.276;2022-12-13T19:13:01;1.10;58.70
19947;DHT22;10135;50.702;7.276;2022-12-13T19:15:03;1.10;58.80
19947;DHT22;10135;50.702;7.276;2022-12-13T19:17:04;1.10;58.80
19947;DHT22;10135;50.702;7.276;2022-12-13T19:19:05;1.10;58.70
19947;DHT22;10135;50.702;7.276;2022-12-13T19:21:07;1.10;58.80
19947;DHT22;10135;50.702;7.276;2022-12-13T19:23:09;1.10;58.80
19947;DHT22;10135;50.702;7.276;2022-12-13T19:25:10;1.10;58.80
19947;DHT22;10135;50.702;7.276;2022-12-13T19:27:10;1.10;58.80
19947;DHT22;10135;50.702;7.276;2022-12-13T19:29:11;1.10;58.80
19947;DHT22;10135;50.702;7.276;2022-12-13T19:31:14;1.10;58.80
19947;DHT22;10135;50.702;7.276;2022-12-13T19:33:15;1.10;58.80
19947;DHT22;10135;50.702;7.276;2022-12-13T19:35:16;1.10;58.80
19947;DHT22;10135;50.702;7.276;2022-12-13T19:37:17;1.10;58.80
19947;DHT22;10135;50.702;7.276;2022-12-13T19:39:17;1.10;58.80
19947;DHT22;10135;50.702;7.276;2022-12-13T19:41:18;1.10;58.80
19947;DHT22;10135;50.702;7.276;2022-12-13T19:43:19;1.10;58.80
19947;DHT22;10135;50.702;7.276;2022-12-13T19:45:22;1.10;58.80
19947;DHT22;10135;50.702;7.276;2022-12-13T19:47:23;1.10;58.80
19947;DHT22;10135;50.702;7.276;2022-12-13T19:49:24;1.20;58.80
19947;DHT22;10135;50.702;7.276;2022-12-13T19:51:24;1.20;58.80
19947;DHT22;10135;50.702;7.276;2022-12-13T19:53:26;1.20;58.80
19947;DHT22;10135;50.702;7.276;2022-12-13T19:55:27;1.20;58.70
19947;DHT22;10135;50.702;7.276;2022-12-13T19:57:31;1.20;58.80
19947;DHT22;10135;50.702;7.276;2022-12-13T19:59:32;1.20;58.70
19947;DHT22;10135;50.702;7.276;2022-12-13T20:01:33;1.20;58.80
19947;DHT22;10135;50.702;7.276;2022-12-13T20:03:40;1.20;58.80
19947;DHT22;10135;50.702;7.276;2022-12-13T20:05:41;1.20;58.70
19947;DHT22;10135;50.702;7.276;2022-12-13T20:07:42;1.20;58.80
19947;DHT22;10135;50.702;7.276;2022-12-13T20:09:43;1.20;58.80
19947;DHT22;10135;50.702;7.276;2022-12-13T20:11:44;1.20;58.80
19947;DHT22;10135;50.702;7.276;2022-12-13T20:13:46;1.20;58.70
19947;DHT22;10135;50.702;7.276;2022-12-13T20:15:48;1.30;58.80
19947;DHT22;10135;50.702;7.276;2022-12-13T20:17:49;1.20;58.70
19947;DHT22;10135;50.702;7.276;2022-12-13T20:19:50;1.30;58.80
19947;DHT22;10135;50.702;7.276;2022-12-13T20:21:51;1.30;58.80
19947;DHT22;10135;50.702;7.276;2022-12-13T20:23:52;1.30;58.70
19947;DHT22;10135;50.702;7.276;2022-12-13T20:26:09;1.30;58.70
19947;DHT22;10135;50.702;7.276;2022-12-13T20:28:11;1.30;58.50
19947;DHT22;10135;50.702;7.276;2022-12-13T20:30:12;1.30;58.70